Baroda, Michigan
Current Conditions -  °F | °C
As of 12:53 AM on Friday 31 Oct 2014 (Local Time) from KBEH Reporting Station
Overcast Overcast  
Wind Chill: 45°   Ceiling: 5000
Heat Index: 49°   Visibility: 10mi
Dew Point: 36°   Wind: 10mph
Humidity: 61%   Direction: 290°WNW
Pressure: 30"   Gusts: NA
Location:  41.96°N, 86.49°W
Report Text: KBEH 310453Z AUTO 29009KT 10SM FEW038 BKN050 OVC110 09/02 A3000 RMK AO2 SLP161 T00940022 401060067
Loading
Personal Weather Stations






























Interactive Weather Map
Tropical Storm Tracking
New forecast layout! Learn more

10-Day Weather Forecast

Advertisements
Track Severe Weather on mobile